Time;durP1;ratioP1;P1;durP2;ratioP2;P2;SDS_P1;SDS_P2;PMS_P1;PMS_P2;Temp;Humidity;BMP_temperature;BMP_pressure;BME280_temperature;BME280_humidity;BME280_pressure;Samples;Min_cycle;Max_cycle;Signal;HPM_P1;HPM_P2
2020/12/28 00:02:21;;;;;;;2.00;1.58;;;6.30;65.00;;;;;;5037704;28;20428;-72
2020/12/28 00:04:47;;;;;;;1.30;1.20;;;6.20;65.70;;;;;;5055021;28;20933;-71
2020/12/28 00:07:15;;;;;;;1.30;1.20;;;6.10;65.10;;;;;;5054738;28;20394;-70
2020/12/28 00:09:42;;;;;;;1.57;1.47;;;6.10;65.40;;;;;;5052815;28;20484;-75
2020/12/28 00:12:07;;;;;;;0.90;0.80;;;6.10;66.20;;;;;;5055430;28;20746;-73
2020/12/28 00:14:33;;;;;;;1.48;1.33;;;6.00;66.30;;;;;;5055695;28;20389;-74
2020/12/28 00:16:58;;;;;;;2.17;1.13;;;5.90;68.40;;;;;;5055544;28;20709;-76
2020/12/28 00:19:24;;;;;;;1.50;1.30;;;6.00;68.20;;;;;;5055632;28;20913;-76
2020/12/28 00:21:49;;;;;;;2.00;1.45;;;6.00;65.70;;;;;;5058063;28;20389;-70
2020/12/28 00:24:15;;;;;;;2.10;0.88;;;6.00;67.60;;;;;;5053405;28;20409;-71
2020/12/28 00:26:43;;;;;;;1.50;1.30;;;6.00;66.50;;;;;;5052494;28;20400;-71
2020/12/28 00:29:09;;;;;;;2.50;1.33;;;5.90;68.50;;;;;;5034265;28;20389;-72
2020/12/28 00:31:35;;;;;;;1.10;1.00;;;6.00;67.20;;;;;;5034847;28;20409;-71
2020/12/28 00:34:01;;;;;;;1.38;1.20;;;6.00;65.80;;;;;;5052847;28;20485;-71
2020/12/28 00:36:27;;;;;;;1.20;1.10;;;6.10;66.20;;;;;;5052946;28;20872;-72
2020/12/28 00:38:53;;;;;;;1.10;0.90;;;6.10;67.60;;;;;;5051203;28;20435;-72
2020/12/28 00:41:19;;;;;;;1.20;1.00;;;6.00;67.50;;;;;;5050296;28;20397;-73
2020/12/28 00:43:45;;;;;;;1.90;1.50;;;6.00;68.90;;;;;;5050486;28;20423;-71
2020/12/28 00:46:12;;;;;;;1.63;1.52;;;6.00;69.80;;;;;;5050668;28;20434;-73
2020/12/28 00:48:38;;;;;;;1.20;1.10;;;6.00;70.80;;;;;;5050674;28;20393;-74
2020/12/28 00:51:04;;;;;;;1.23;1.13;;;6.00;68.70;;;;;;5050911;28;20390;-72
2020/12/28 00:53:30;;;;;;;1.10;1.10;;;5.90;69.90;;;;;;5050342;28;20491;-72
2020/12/28 00:55:56;;;;;;;1.70;1.60;;;5.90;72.30;;;;;;5050808;28;20512;-72
2020/12/28 00:58:22;;;;;;;1.60;1.30;;;6.10;70.40;;;;;;5050722;28;20385;-72
2020/12/28 01:00:48;;;;;;;1.25;1.08;;;6.00;70.20;;;;;;5033028;28;20381;-72
2020/12/28 01:03:13;;;;;;;1.20;1.10;;;6.00;69.90;;;;;;5050368;28;20435;-72
2020/12/28 01:05:39;;;;;;;1.40;0.95;;;5.90;70.40;;;;;;5050547;28;20382;-72
2020/12/28 01:08:05;;;;;;;1.50;1.17;;;6.00;69.70;;;;;;5050301;28;20385;-74
2020/12/28 01:10:30;;;;;;;1.40;1.10;;;6.00;66.20;;;;;;5050367;28;20519;-72
2020/12/28 01:12:56;;;;;;;2.10;1.30;;;6.00;65.30;;;;;;5050613;28;20385;-73
2020/12/28 01:15:21;;;;;;;1.60;0.80;;;6.00;66.50;;;;;;5050688;28;20400;-74
2020/12/28 01:17:47;;;;;;;1.20;1.00;;;6.00;65.10;;;;;;5050323;28;20381;-72
2020/12/28 01:20:12;;;;;;;1.08;0.90;;;5.90;65.50;;;;;;5050359;28;20386;-73
2020/12/28 01:22:38;;;;;;;2.20;1.00;;;5.90;66.60;;;;;;5049636;28;20774;-72
2020/12/28 01:25:04;;;;;;;2.20;1.13;;;5.80;66.10;;;;;;5049996;28;20931;-73
2020/12/28 01:27:30;;;;;;;1.70;1.00;;;5.80;65.40;;;;;;5049939;28;20413;-72
2020/12/28 01:29:55;;;;;;;2.30;1.00;;;5.70;66.80;;;;;;5050279;28;20416;-73
2020/12/28 01:32:21;;;;;;;1.13;1.00;;;5.70;67.60;;;;;;5050306;28;20397;-73
2020/12/28 01:34:47;;;;;;;1.20;1.10;;;5.70;67.10;;;;;;5050173;28;20764;-72
2020/12/28 01:37:12;;;;;;;1.77;1.50;;;5.60;69.90;;;;;;5049343;28;20790;-72
2020/12/28 01:39:39;;;;;;;1.37;1.17;;;5.60;69.50;;;;;;5050496;28;20385;-73
2020/12/28 01:42:06;;;;;;;3.00;1.27;;;5.60;71.00;;;;;;5036155;28;20412;-72
2020/12/28 01:44:31;;;;;;;1.92;1.67;;;5.60;72.10;;;;;;5053971;28;20397;-72
2020/12/28 01:46:57;;;;;;;4.10;1.73;;;5.50;73.30;;;;;;5053810;28;20844;-73
2020/12/28 01:49:23;;;;;;;0.90;0.80;;;5.40;74.20;;;;;;5054173;28;20902;-72
2020/12/28 01:51:49;;;;;;;1.60;1.27;;;5.50;73.40;;;;;;5053220;28;20401;-72
2020/12/28 01:54:15;;;;;;;2.95;2.60;;;5.60;73.10;;;;;;5053786;28;20542;-73
2020/12/28 01:56:41;;;;;;;2.13;1.90;;;5.50;74.70;;;;;;5053946;28;20815;-72
2020/12/28 01:59:08;;;;;;;1.85;1.65;;;5.50;75.30;;;;;;5053569;28;20389;-73
2020/12/28 02:01:41;;;;;;;3.40;1.60;;;5.40;76.10;;;;;;5054449;28;20393;-71
2020/12/28 02:04:07;;;;;;;6.32;3.30;;;5.50;75.90;;;;;;5055526;28;20594;-72
2020/12/28 02:06:34;;;;;;;3.50;2.10;;;5.50;74.20;;;;;;5055973;28;20447;-72
2020/12/28 02:08:59;;;;;;;1.38;1.20;;;5.60;73.90;;;;;;5055489;28;20377;-72
2020/12/28 02:11:27;;;;;;;3.90;2.30;;;5.80;72.60;;;;;;5055550;28;20392;-70
2020/12/28 02:13:53;;;;;;;3.40;1.30;;;5.90;70.50;;;;;;5055466;28;20385;-71
2020/12/28 02:16:18;;;;;;;1.20;1.00;;;5.90;72.40;;;;;;5055754;28;20412;-70
2020/12/28 02:18:44;;;;;;;1.30;1.20;;;5.80;71.70;;;;;;5055253;28;20401;-70
2020/12/28 02:21:09;;;;;;;1.30;1.20;;;5.70;72.60;;;;;;5055445;28;20385;-71
2020/12/28 02:23:35;;;;;;;1.67;1.33;;;5.60;74.20;;;;;;5055118;28;20409;-71
2020/12/28 02:26:00;;;;;;;2.30;1.05;;;5.60;74.70;;;;;;5055509;28;20389;-71
2020/12/28 02:28:26;;;;;;;1.30;1.20;;;5.60;75.60;;;;;;5055131;28;20373;-72
2020/12/28 02:30:51;;;;;;;1.58;1.48;;;5.50;75.70;;;;;;5055029;28;20847;-73
2020/12/28 02:33:17;;;;;;;1.85;1.15;;;5.50;77.10;;;;;;5054634;28;20393;-71
2020/12/28 02:35:42;;;;;;;4.55;1.83;;;5.60;77.20;;;;;;5054827;28;20453;-72
2020/12/28 02:38:08;;;;;;;1.92;1.73;;;5.70;78.00;;;;;;5054936;28;20507;-71
2020/12/28 02:40:33;;;;;;;1.90;1.50;;;5.70;74.80;;;;;;5053662;28;20397;-72
2020/12/28 02:42:59;;;;;;;1.60;1.08;;;5.70;75.70;;;;;;5052999;28;20471;-72
2020/12/28 02:45:24;;;;;;;1.00;1.00;;;5.70;74.20;;;;;;5052915;28;20425;-72
2020/12/28 02:47:50;;;;;;;1.40;1.27;;;5.80;73.70;;;;;;5053059;28;20381;-72
2020/12/28 02:50:16;;;;;;;2.70;1.40;;;5.80;73.00;;;;;;5052775;28;20866;-72
2020/12/28 02:52:45;;;;;;;1.48;1.30;;;5.80;73.80;;;;;;5052736;28;20393;-71
2020/12/28 02:55:11;;;;;;;1.90;1.20;;;5.80;74.50;;;;;;5052886;28;20440;-72
2020/12/28 02:57:37;;;;;;;2.00;1.50;;;5.80;74.50;;;;;;5052576;28;20385;-72
2020/12/28 03:00:04;;;;;;;1.20;1.00;;;5.90;73.60;;;;;;5052221;28;20539;-71
2020/12/28 03:02:30;;;;;;;1.10;1.00;;;5.90;72.20;;;;;;5052698;28;20409;-73
2020/12/28 03:04:56;;;;;;;1.10;0.80;;;5.90;71.30;;;;;;5052664;28;20894;-72
2020/12/28 03:07:21;;;;;;;1.58;1.00;;;5.90;70.60;;;;;;5052533;28;20393;-71
2020/12/28 03:09:47;;;;;;;2.10;1.30;;;5.80;71.70;;;;;;5052700;28;20388;-72
2020/12/28 03:12:12;;;;;;;2.57;1.20;;;5.90;72.00;;;;;;5052106;28;20400;-72
2020/12/28 03:14:38;;;;;;;1.20;1.00;;;5.80;72.70;;;;;;5034668;28;20441;-71
2020/12/28 03:17:04;;;;;;;1.00;0.90;;;5.90;73.20;;;;;;5052341;28;20897;-72
2020/12/28 03:19:31;;;;;;;1.00;0.90;;;5.80;71.10;;;;;;5052410;28;20793;-72
2020/12/28 03:21:57;;;;;;;1.30;1.10;;;5.80;72.30;;;;;;5052185;28;20378;-72
2020/12/28 03:24:22;;;;;;;1.20;1.10;;;5.90;70.30;;;;;;5052255;28;20515;-72
2020/12/28 03:26:48;;;;;;;2.00;1.10;;;5.90;70.70;;;;;;5051791;28;20393;-72
2020/12/28 03:29:13;;;;;;;0.80;0.80;;;5.80;70.30;;;;;;5052195;28;20381;-72
2020/12/28 03:31:40;;;;;;;1.30;1.17;;;5.90;71.50;;;;;;5052092;28;20381;-71
2020/12/28 03:34:06;;;;;;;1.50;1.20;;;5.90;72.00;;;;;;5051751;28;20421;-72
2020/12/28 03:36:32;;;;;;;2.70;2.15;;;5.80;72.90;;;;;;5051860;28;20381;-72
2020/12/28 03:38:57;;;;;;;2.28;1.45;;;5.80;73.30;;;;;;5051688;28;20439;-72
2020/12/28 03:41:23;;;;;;;2.20;1.60;;;5.80;73.80;;;;;;5051996;28;20446;-73
2020/12/28 03:43:48;;;;;;;0.80;0.80;;;5.70;73.90;;;;;;5051719;28;20409;-73
2020/12/28 03:46:14;;;;;;;2.78;1.38;;;5.80;73.40;;;;;;5052202;28;20743;-72
2020/12/28 03:48:39;;;;;;;2.03;1.23;;;5.80;73.60;;;;;;5051920;28;20388;-73
2020/12/28 03:51:05;;;;;;;1.20;1.10;;;5.80;73.90;;;;;;5051674;28;20455;-71
2020/12/28 03:53:30;;;;;;;1.10;1.00;;;5.80;74.10;;;;;;5051072;28;20448;-72
2020/12/28 03:55:56;;;;;;;1.70;1.60;;;5.80;73.50;;;;;;5051745;28;20732;-73
2020/12/28 03:58:22;;;;;;;2.93;1.33;;;5.80;73.50;;;;;;5051486;28;20381;-71
2020/12/28 04:00:47;;;;;;;1.70;1.50;;;5.80;73.80;;;;;;5051472;28;20377;-71
2020/12/28 04:03:13;;;;;;;2.63;1.50;;;5.80;74.70;;;;;;5050300;28;20405;-72
2020/12/28 04:05:38;;;;;;;1.23;1.13;;;5.80;74.60;;;;;;5051252;28;20381;-73
2020/12/28 04:08:06;;;;;;;3.40;1.90;;;5.90;75.60;;;;;;5051257;28;20392;-72
2020/12/28 04:10:32;;;;;;;1.80;1.67;;;6.00;74.50;;;;;;5051640;28;20475;-72
2020/12/28 04:12:58;;;;;;;2.17;1.73;;;5.90;74.30;;;;;;5051442;28;20386;-72
2020/12/28 04:15:24;;;;;;;2.00;1.60;;;5.90;75.00;;;;;;5050827;28;20412;-72
2020/12/28 04:17:49;;;;;;;1.60;1.50;;;5.90;75.80;;;;;;5031212;28;20382;-72
2020/12/28 04:20:15;;;;;;;2.20;1.70;;;5.90;75.80;;;;;;5031609;28;20387;-72
2020/12/28 04:22:40;;;;;;;1.30;1.20;;;5.80;75.60;;;;;;5041343;28;20906;-72
2020/12/28 04:25:07;;;;;;;1.70;1.60;;;5.90;75.60;;;;;;5050934;28;20385;-72
2020/12/28 04:27:33;;;;;;;1.63;1.40;;;5.90;75.50;;;;;;5050978;28;20428;-72
2020/12/28 04:29:58;;;;;;;2.83;1.33;;;5.90;75.40;;;;;;5050711;28;20472;-72
2020/12/28 04:32:24;;;;;;;1.50;1.40;;;5.90;75.10;;;;;;5050944;28;20388;-72
2020/12/28 04:34:49;;;;;;;1.70;1.40;;;5.90;75.10;;;;;;5050675;28;20381;-72
2020/12/28 04:37:15;;;;;;;2.67;1.90;;;5.90;74.30;;;;;;5050356;28;20455;-72
2020/12/28 04:39:41;;;;;;;1.73;1.63;;;5.80;75.20;;;;;;5050863;28;20390;-72
2020/12/28 04:42:06;;;;;;;1.70;1.30;;;5.80;76.10;;;;;;5051201;28;20435;-72
2020/12/28 04:44:32;;;;;;;1.52;1.00;;;5.80;75.80;;;;;;5050667;28;20393;-71
2020/12/28 04:46:57;;;;;;;1.85;1.27;;;5.80;75.40;;;;;;5050598;28;20527;-72
2020/12/28 04:49:24;;;;;;;1.20;1.10;;;5.90;75.40;;;;;;5050681;28;20464;-73
2020/12/28 04:51:53;;;;;;;1.73;1.63;;;5.80;75.30;;;;;;5050123;28;20405;-72
2020/12/28 04:54:18;;;;;;;2.00;1.65;;;5.80;75.90;;;;;;5051671;28;20981;-73
2020/12/28 04:56:44;;;;;;;1.50;1.40;;;5.80;75.90;;;;;;5055650;28;20420;-73
2020/12/28 04:59:10;;;;;;;3.20;2.15;;;5.80;75.80;;;;;;5055166;28;20396;-73
2020/12/28 05:01:35;;;;;;;1.50;1.40;;;5.80;77.00;;;;;;5053284;28;20397;-73
2020/12/28 05:04:01;;;;;;;2.88;1.30;;;5.70;77.40;;;;;;5054692;28;20830;-74
2020/12/28 05:06:26;;;;;;;2.20;1.60;;;5.70;78.50;;;;;;5055500;28;20921;-73
2020/12/28 05:08:54;;;;;;;2.83;2.00;;;5.80;77.70;;;;;;5054858;28;20389;-74
2020/12/28 05:11:20;;;;;;;1.90;1.20;;;5.80;77.50;;;;;;5052788;28;20382;-73
2020/12/28 05:13:49;;;;;;;4.10;1.90;;;5.90;74.60;;;;;;5050512;28;20418;-74
2020/12/28 05:16:15;;;;;;;2.00;1.80;;;5.80;75.10;;;;;;5051358;28;20492;-73
2020/12/28 05:18:41;;;;;;;2.10;1.70;;;5.80;75.90;;;;;;5051308;28;20421;-73
2020/12/28 05:21:07;;;;;;;1.30;1.20;;;5.70;76.30;;;;;;5051377;28;20397;-74
2020/12/28 05:23:33;;;;;;;2.30;1.90;;;5.80;75.80;;;;;;5051089;28;20406;-75
2020/12/28 05:26:03;;;;;;;2.13;1.93;;;5.70;76.00;;;;;;5051025;28;20388;-72
2020/12/28 05:28:36;;;;;;;3.03;1.83;;;5.60;76.50;;;;;;5050431;28;20450;-72
2020/12/28 05:31:02;;;;;;;2.40;2.20;;;5.40;77.40;;;;;;5032624;28;20455;-74
2020/12/28 05:33:32;;;;;;;2.45;2.00;;;5.30;78.80;;;;;;5050854;28;20392;-72
2020/12/28 05:35:58;;;;;;;2.90;2.30;;;5.30;80.10;;;;;;5050535;28;20392;-74
2020/12/28 05:38:28;;;;;;;5.55;2.40;;;5.30;80.40;;;;;;5050151;28;20385;-73
2020/12/28 05:41:05;;;;;;;2.05;1.92;;;5.20;79.50;;;;;;5048114;28;20480;-74
2020/12/28 05:43:31;;;;;;;2.40;2.20;;;5.20;78.60;;;;;;5049678;28;20448;-75
2020/12/28 05:45:57;;;;;;;2.55;2.35;;;5.20;77.90;;;;;;5049819;28;20382;-73
2020/12/28 05:48:24;;;;;;;3.83;2.20;;;4.90;79.10;;;;;;5050512;28;20397;-73
2020/12/28 05:50:57;;;;;;;3.92;2.60;;;4.80;80.40;;;;;;5050944;28;20751;-74
2020/12/28 05:53:24;;;;;;;5.47;2.55;;;4.60;81.80;;;;;;5033301;28;20392;-74
2020/12/28 05:55:51;;;;;;;2.60;2.40;;;4.50;84.50;;;;;;5050164;28;20404;-73
2020/12/28 05:58:21;;;;;;;1.90;1.70;;;4.50;87.40;;;;;;5051167;28;20381;-73
2020/12/28 06:00:49;;;;;;;2.00;1.90;;;4.60;86.30;;;;;;5051302;28;20862;-73
2020/12/28 06:03:25;;;;;;;1.60;1.50;;;4.50;86.30;;;;;;5051457;28;20410;-74
2020/12/28 06:05:54;;;;;;;2.40;1.83;;;4.60;86.50;;;;;;5050752;28;20401;-74
2020/12/28 06:08:20;;;;;;;1.60;1.50;;;4.60;87.30;;;;;;5032539;28;20479;-73
2020/12/28 06:10:46;;;;;;;3.00;2.30;;;4.60;88.40;;;;;;5050906;28;20497;-73
2020/12/28 06:13:22;;;;;;;1.60;1.50;;;4.70;88.10;;;;;;5051004;28;20443;-73
2020/12/28 06:16:01;;;;;;;2.72;1.70;;;4.80;86.80;;;;;;5051113;28;20428;-73
2020/12/28 06:18:27;;;;;;;2.88;1.67;;;4.90;85.70;;;;;;5051457;28;20508;-74
2020/12/28 06:20:53;;;;;;;1.98;1.88;;;5.00;83.60;;;;;;5051244;28;20853;-75
2020/12/28 06:23:28;;;;;;;1.70;1.30;;;5.10;81.70;;;;;;5050536;28;20492;-73
2020/12/28 06:25:56;;;;;;;3.05;1.67;;;5.20;78.80;;;;;;5050054;28;20382;-73
2020/12/28 06:28:26;;;;;;;1.98;1.80;;;5.30;75.40;;;;;;5052789;28;20390;-73
2020/12/28 06:30:53;;;;;;;3.83;1.30;;;5.30;75.60;;;;;;5052530;28;20443;-73
2020/12/28 06:33:19;;;;;;;1.40;1.30;;;5.40;75.50;;;;;;5052905;28;20476;-73
2020/12/28 06:35:45;;;;;;;1.50;1.40;;;5.40;74.00;;;;;;5053032;28;20476;-74
2020/12/28 06:38:11;;;;;;;1.60;1.40;;;5.40;73.10;;;;;;5052991;28;20391;-73
2020/12/28 06:40:39;;;;;;;1.50;1.27;;;5.50;72.60;;;;;;5053356;28;20386;-73
2020/12/28 06:43:15;;;;;;;2.42;1.63;;;5.40;72.40;;;;;;5053435;28;20925;-73
2020/12/28 06:45:44;;;;;;;1.33;1.23;;;5.40;72.30;;;;;;5053018;28;20455;-74
2020/12/28 06:48:24;;;;;;;2.88;2.08;;;5.30;72.50;;;;;;5053054;28;20416;-74
2020/12/28 06:50:51;;;;;;;2.45;1.20;;;5.30;72.60;;;;;;5053180;28;20424;-74
2020/12/28 06:53:24;;;;;;;1.80;1.70;;;5.40;72.00;;;;;;5055215;28;20386;-72
2020/12/28 06:55:50;;;;;;;4.60;3.17;;;5.40;71.60;;;;;;5054954;28;20958;-73
2020/12/28 06:58:16;;;;;;;1.85;1.73;;;5.40;70.90;;;;;;5051641;28;20381;-73
2020/12/28 07:00:42;;;;;;;4.40;1.80;;;5.40;70.80;;;;;;5051367;28;20508;-73
2020/12/28 07:03:15;;;;;;;2.70;1.70;;;5.50;71.70;;;;;;5052318;28;20401;-74
2020/12/28 07:05:41;;;;;;;6.28;4.13;;;5.40;70.00;;;;;;5052462;28;20467;-72
2020/12/28 07:08:07;;;;;;;5.30;3.70;;;5.30;70.90;;;;;;5051430;28;20736;-74
2020/12/28 07:10:33;;;;;;;5.63;3.10;;;5.20;74.20;;;;;;5052135;28;20877;-71
2020/12/28 07:13:06;;;;;;;2.58;1.83;;;5.10;75.60;;;;;;5051744;28;20377;-71
2020/12/28 07:15:32;;;;;;;2.90;2.00;;;5.20;76.80;;;;;;5034310;28;20409;-72
2020/12/28 07:18:10;;;;;;;5.20;2.65;;;5.20;76.10;;;;;;5051821;28;20385;-74
2020/12/28 07:20:36;;;;;;;6.57;3.50;;;5.30;75.90;;;;;;5052509;28;20743;-73
2020/12/28 07:23:02;;;;;;;65.20;31.50;;;5.40;75.50;;;;;;5051876;28;20409;-73
2020/12/28 07:25:28;;;;;;;124.13;58.03;;;5.50;76.10;;;;;;5051790;28;20388;-74
2020/12/28 07:27:54;;;;;;;15.20;8.23;;;5.60;76.00;;;;;;5050461;28;20514;-74
2020/12/28 07:30:20;;;;;;;11.70;6.40;;;5.60;74.00;;;;;;5052251;28;20456;-73
2020/12/28 07:32:45;;;;;;;79.05;38.85;;;5.50;75.30;;;;;;5051821;28;20459;-73
2020/12/28 07:35:11;;;;;;;8.82;5.03;;;5.70;79.50;;;;;;5049151;28;20440;-75
2020/12/28 07:37:42;;;;;;;28.50;14.50;;;5.80;75.90;;;;;;5051570;28;20404;-73
2020/12/28 07:40:08;;;;;;;72.53;34.65;;;5.70;73.30;;;;;;5052821;28;20382;-73
2020/12/28 07:42:35;;;;;;;102.28;42.25;;;5.70;72.40;;;;;;5052431;28;20409;-73
2020/12/28 07:45:03;;;;;;;63.03;25.33;;;5.80;72.70;;;;;;5052427;28;20444;-74
2020/12/28 07:47:46;;;;;;;68.72;24.75;;;5.90;69.90;;;;;;5051489;28;20733;-74
2020/12/28 07:50:15;;;;;;;28.08;10.68;;;6.00;69.40;;;;;;5051388;28;20401;-73
2020/12/28 07:53:03;;;;;;;137.48;48.95;;;5.90;66.90;;;;;;5052481;28;20401;-73
2020/12/28 07:55:38;;;;;;;29.42;11.77;;;5.80;69.00;;;;;;5051964;28;20390;-73
2020/12/28 07:58:17;;;;;;;98.47;37.13;;;5.90;69.60;;;;;;5053630;28;20444;-73
2020/12/28 08:00:46;;;;;;;28.87;13.17;;;5.90;70.90;;;;;;5052140;28;20910;-73
2020/12/28 08:03:26;;;;;;;40.80;21.17;;;5.90;69.10;;;;;;5048436;28;20409;-75
2020/12/28 08:05:54;;;;;;;2.33;2.00;;;5.90;69.20;;;;;;5050455;28;20747;-75
2020/12/28 08:08:21;;;;;;;2.83;2.40;;;5.80;66.60;;;;;;5050733;28;20461;-74
2020/12/28 08:11:01;;;;;;;2.60;2.00;;;5.70;69.30;;;;;;5051296;28;20846;-73
2020/12/28 08:13:28;;;;;;;3.35;2.65;;;5.50;69.30;;;;;;5050834;28;20398;-74
2020/12/28 08:15:54;;;;;;;3.95;2.55;;;5.30;71.80;;;;;;5033636;28;20390;-74
2020/12/28 08:18:20;;;;;;;2.80;2.60;;;5.10;73.40;;;;;;5050447;28;20431;-75
2020/12/28 08:20:56;;;;;;;2.20;2.10;;;4.80;76.00;;;;;;5051873;28;20893;-74
2020/12/28 08:23:26;;;;;;;2.40;2.20;;;4.70;77.10;;;;;;5035213;28;20409;-75
2020/12/28 08:25:52;;;;;;;2.40;2.20;;;4.60;78.30;;;;;;5050678;28;20478;-73
2020/12/28 08:28:19;;;;;;;3.88;2.50;;;4.60;78.50;;;;;;5049986;28;20948;-73
2020/12/28 08:30:44;;;;;;;3.17;2.70;;;4.50;79.00;;;;;;5049624;28;20414;-72
2020/12/28 08:33:10;;;;;;;2.30;2.10;;;4.50;79.50;;;;;;5049475;28;20414;-73
2020/12/28 08:35:49;;;;;;;2.30;2.10;;;4.40;80.50;;;;;;5032533;28;20438;-74
2020/12/28 08:38:15;;;;;;;3.35;2.30;;;4.50;80.40;;;;;;5050467;28;20511;-74
2020/12/28 08:40:40;;;;;;;3.17;2.30;;;4.50;79.70;;;;;;5050662;28;20479;-72
2020/12/28 08:43:07;;;;;;;4.07;2.47;;;4.50;79.70;;;;;;5049780;28;20839;-72
2020/12/28 08:45:33;;;;;;;2.45;2.25;;;4.50;79.90;;;;;;5051074;28;20728;-73
2020/12/28 08:47:59;;;;;;;3.75;2.70;;;4.60;79.60;;;;;;5050055;28;20389;-74
2020/12/28 08:50:33;;;;;;;3.58;2.42;;;4.60;79.90;;;;;;5048912;28;20385;-73
2020/12/28 08:52:58;;;;;;;2.47;2.28;;;4.70;79.30;;;;;;5049743;28;20393;-71
2020/12/28 08:55:24;;;;;;;3.20;2.23;;;4.70;78.30;;;;;;5050648;28;20750;-72
2020/12/28 08:57:55;;;;;;;2.20;2.00;;;4.90;76.00;;;;;;5054867;28;20835;-73
2020/12/28 09:00:23;;;;;;;4.80;2.40;;;5.00;74.20;;;;;;5052255;28;20412;-72
2020/12/28 09:02:53;;;;;;;2.20;1.70;;;5.10;74.50;;;;;;5030926;28;20908;-73
2020/12/28 09:05:20;;;;;;;3.88;1.80;;;5.40;69.70;;;;;;5043182;28;20405;-72
2020/12/28 09:07:47;;;;;;;1.73;1.60;;;5.80;67.60;;;;;;5048160;28;20439;-73
2020/12/28 09:10:13;;;;;;;3.10;1.73;;;6.50;61.40;;;;;;5033391;28;20401;-73
2020/12/28 09:12:39;;;;;;;2.10;1.80;;;7.00;55.50;;;;;;5051330;28;20419;-73
2020/12/28 09:15:05;;;;;;;3.47;1.80;;;7.30;52.00;;;;;;5040127;28;20421;-73
2020/12/28 09:17:30;;;;;;;8.00;1.70;;;7.20;49.30;;;;;;5048229;28;20416;-73
2020/12/28 09:19:56;;;;;;;2.97;1.60;;;6.90;50.70;;;;;;5055468;28;20499;-74
2020/12/28 09:22:22;;;;;;;2.07;1.80;;;6.70;53.00;;;;;;5053811;28;20468;-72
2020/12/28 09:24:47;;;;;;;3.03;1.90;;;6.40;55.40;;;;;;5054576;28;20390;-72
2020/12/28 09:27:13;;;;;;;3.20;2.10;;;6.40;55.80;;;;;;5053853;28;20397;-73
2020/12/28 09:29:38;;;;;;;2.33;2.13;;;6.40;56.70;;;;;;5053669;28;20862;-73
2020/12/28 09:32:04;;;;;;;1.80;1.70;;;6.40;56.70;;;;;;5054099;28;20393;-73
2020/12/28 09:34:29;;;;;;;2.47;1.70;;;6.30;56.80;;;;;;5036340;28;20457;-72
2020/12/28 09:37:00;;;;;;;2.50;2.10;;;6.40;55.10;;;;;;5053667;28;20910;-73
2020/12/28 09:39:25;;;;;;;4.07;1.90;;;6.40;54.10;;;;;;5035035;28;20408;-74
2020/12/28 09:41:52;;;;;;;4.80;1.77;;;6.30;55.60;;;;;;5052912;28;20389;-72
2020/12/28 09:44:19;;;;;;;5.32;1.95;;;6.20;55.90;;;;;;5053099;28;20437;-72
2020/12/28 09:46:44;;;;;;;3.53;1.50;;;6.50;55.00;;;;;;5053089;28;20378;-73
2020/12/28 09:49:10;;;;;;;3.70;1.75;;;6.50;53.70;;;;;;5054823;28;20392;-73
2020/12/28 09:51:36;;;;;;;1.45;1.30;;;6.60;53.00;;;;;;5037298;28;20389;-72
2020/12/28 09:54:01;;;;;;;2.43;2.00;;;6.50;53.30;;;;;;5054581;28;20504;-72
2020/12/28 09:56:27;;;;;;;4.80;1.63;;;6.50;54.40;;;;;;5054833;28;20397;-73
2020/12/28 09:58:52;;;;;;;2.30;1.40;;;6.40;54.70;;;;;;5054396;28;20477;-72
2020/12/28 10:01:18;;;;;;;2.33;1.60;;;6.50;54.00;;;;;;5057406;28;20906;-73
2020/12/28 10:03:43;;;;;;;3.93;2.00;;;6.40;53.80;;;;;;5057714;28;20435;-71
2020/12/28 10:06:31;;;;;;;2.93;2.10;;;6.50;54.50;;;;;;5056613;28;20413;-71
2020/12/28 10:08:57;;;;;;;3.80;1.90;;;6.50;54.80;;;;;;5040053;28;20421;-74
2020/12/28 10:11:23;;;;;;;1.50;1.30;;;6.40;54.90;;;;;;5058813;28;20461;-70
2020/12/28 10:13:48;;;;;;;1.73;1.57;;;6.30;54.10;;;;;;5028826;28;20486;-71
2020/12/28 10:16:23;;;;;;;1.50;1.40;;;6.20;54.40;;;;;;5053158;28;20746;-73
2020/12/28 10:18:49;;;;;;;3.83;1.92;;;6.20;55.90;;;;;;5052937;28;20399;-70
2020/12/28 10:21:14;;;;;;;3.50;1.60;;;6.10;56.80;;;;;;5053047;28;20389;-71
2020/12/28 10:23:40;;;;;;;1.40;1.30;;;6.10;56.40;;;;;;5033955;28;20430;-72
2020/12/28 10:26:17;;;;;;;3.45;2.30;;;5.90;57.90;;;;;;5032260;28;20383;-70
2020/12/28 10:28:43;;;;;;;3.15;1.60;;;5.80;58.40;;;;;;5042454;28;20467;-71
2020/12/28 10:31:10;;;;;;;2.75;1.42;;;5.70;58.70;;;;;;5052503;28;20381;-72
2020/12/28 10:33:48;;;;;;;2.20;1.80;;;5.80;58.40;;;;;;5052398;28;20421;-72
2020/12/28 10:36:17;;;;;;;4.13;2.40;;;5.80;60.60;;;;;;5052758;28;20393;-70
2020/12/28 10:38:54;;;;;;;2.00;1.90;;;5.60;60.60;;;;;;5052431;28;20381;-71
2020/12/28 10:41:28;;;;;;;2.60;1.50;;;5.50;61.90;;;;;;5034894;28;20385;-70
2020/12/28 10:43:54;;;;;;;2.60;1.73;;;5.60;60.00;;;;;;5051694;28;20416;-71
2020/12/28 10:46:20;;;;;;;2.13;1.60;;;5.80;60.40;;;;;;5052717;28;20381;-71
2020/12/28 10:48:45;;;;;;;2.00;1.90;;;5.80;59.30;;;;;;5052480;28;20385;-70
2020/12/28 10:51:11;;;;;;;3.40;2.00;;;5.90;58.90;;;;;;5052638;28;20830;-72
2020/12/28 10:53:37;;;;;;;1.90;1.73;;;5.80;59.10;;;;;;5052507;28;20384;-72
2020/12/28 10:56:03;;;;;;;2.97;1.55;;;5.90;59.10;;;;;;5052378;28;20739;-70
2020/12/28 10:58:28;;;;;;;2.10;1.60;;;6.00;58.00;;;;;;5051849;28;20450;-72
2020/12/28 11:00:55;;;;;;;4.17;1.70;;;6.10;56.80;;;;;;5052162;28;20400;-70
2020/12/28 11:03:20;;;;;;;1.60;1.50;;;6.30;56.90;;;;;;5052180;28;20403;-71
2020/12/28 11:05:46;;;;;;;2.40;1.80;;;6.40;55.60;;;;;;5051971;28;20489;-71
2020/12/28 11:08:12;;;;;;;2.10;2.00;;;6.50;54.60;;;;;;5052043;28;20404;-72
2020/12/28 11:10:38;;;;;;;1.90;1.40;;;6.50;55.80;;;;;;5051436;28;20393;-72
2020/12/28 11:13:04;;;;;;;2.47;1.90;;;6.60;54.80;;;;;;5051956;28;20385;-72
2020/12/28 11:15:29;;;;;;;1.90;1.40;;;6.60;53.50;;;;;;5051886;28;20744;-72
2020/12/28 11:17:55;;;;;;;1.90;1.50;;;6.70;52.50;;;;;;5051542;28;20400;-73
2020/12/28 11:20:20;;;;;;;3.97;1.40;;;6.70;52.20;;;;;;5051516;28;20409;-72
2020/12/28 11:22:48;;;;;;;3.20;1.93;;;6.80;52.20;;;;;;5049293;28;20484;-73
2020/12/28 11:25:16;;;;;;;2.80;1.52;;;6.70;53.20;;;;;;5036743;28;20394;-71
2020/12/28 11:27:41;;;;;;;1.85;1.30;;;6.80;52.00;;;;;;5045610;28;20408;-71
2020/12/28 11:30:07;;;;;;;2.30;1.33;;;6.90;49.90;;;;;;5052219;28;20730;-72
2020/12/28 11:32:33;;;;;;;1.30;1.10;;;7.00;46.60;;;;;;5051448;28;20790;-71
2020/12/28 11:34:58;;;;;;;2.90;1.50;;;7.10;47.40;;;;;;5051215;28;20804;-71
2020/12/28 11:37:24;;;;;;;1.90;1.37;;;7.00;47.40;;;;;;5050729;28;20390;-71
2020/12/28 11:39:49;;;;;;;3.70;1.67;;;7.10;46.60;;;;;;5050908;28;20397;-73
2020/12/28 11:42:17;;;;;;;4.00;1.20;;;7.20;47.10;;;;;;5051467;28;20369;-71
2020/12/28 11:44:43;;;;;;;2.45;1.60;;;7.20;44.80;;;;;;5050930;28;20504;-71
2020/12/28 11:47:09;;;;;;;2.20;1.45;;;7.20;46.00;;;;;;5050016;28;20520;-71
2020/12/28 11:49:35;;;;;;;2.03;1.52;;;7.10;46.90;;;;;;5051127;28;20389;-71
2020/12/28 11:52:00;;;;;;;3.03;1.60;;;7.10;45.90;;;;;;5050734;28;20886;-72
2020/12/28 11:54:26;;;;;;;2.80;1.40;;;7.10;46.50;;;;;;5056087;28;20404;-70
2020/12/28 11:56:51;;;;;;;1.85;1.50;;;7.20;44.60;;;;;;5056401;28;20393;-69
2020/12/28 11:59:17;;;;;;;1.52;1.42;;;7.30;44.70;;;;;;5056618;28;20815;-71
2020/12/28 12:01:47;;;;;;;5.90;1.60;;;7.30;44.60;;;;;;5055962;28;20427;-70
2020/12/28 12:04:13;;;;;;;2.55;1.65;;;7.30;43.50;;;;;;5057234;28;20401;-69
2020/12/28 12:06:39;;;;;;;3.60;1.90;;;7.40;43.50;;;;;;5055757;28;20941;-73
2020/12/28 12:09:14;;;;;;;3.78;1.58;;;7.50;43.90;;;;;;5054986;28;20432;-70
2020/12/28 12:11:47;;;;;;;2.17;1.42;;;7.60;43.10;;;;;;5035774;28;20401;-69
2020/12/28 12:14:14;;;;;;;2.40;1.90;;;7.90;41.80;;;;;;5055130;28;20427;-69
2020/12/28 12:16:39;;;;;;;2.15;1.42;;;7.90;39.90;;;;;;5054878;28;20641;-69
2020/12/28 12:19:05;;;;;;;3.20;1.50;;;8.00;39.40;;;;;;5055408;28;20404;-69
2020/12/28 12:21:32;;;;;;;1.50;1.03;;;8.00;39.10;;;;;;5054877;28;20404;-70
2020/12/28 12:23:57;;;;;;;1.20;1.10;;;8.30;38.50;;;;;;5035411;28;20438;-70
2020/12/28 12:26:24;;;;;;;2.00;1.53;;;8.40;38.70;;;;;;5048561;28;20403;-70
2020/12/28 12:28:53;;;;;;;2.43;1.63;;;8.50;37.20;;;;;;5055387;28;20398;-69
2020/12/28 12:31:19;;;;;;;2.45;1.50;;;8.50;36.00;;;;;;5055149;28;20427;-72
2020/12/28 12:33:45;;;;;;;5.75;1.67;;;8.30;37.10;;;;;;5053888;28;20425;-69
2020/12/28 12:36:12;;;;;;;5.05;1.55;;;8.30;36.70;;;;;;5053466;28;20397;-71
2020/12/28 12:38:38;;;;;;;2.50;1.60;;;8.00;37.60;;;;;;5049603;28;20397;-71
2020/12/28 12:41:03;;;;;;;3.85;1.70;;;7.80;38.80;;;;;;5049974;28;20404;-70
2020/12/28 12:43:29;;;;;;;3.28;1.65;;;7.80;39.10;;;;;;5050102;28;20463;-73
2020/12/28 12:45:55;;;;;;;2.35;1.95;;;7.80;39.20;;;;;;5051040;28;20393;-70
2020/12/28 12:48:20;;;;;;;4.32;1.50;;;7.70;40.90;;;;;;5050075;28;20381;-71
2020/12/28 12:50:47;;;;;;;2.90;1.73;;;7.60;41.20;;;;;;5049767;28;20712;-71
2020/12/28 12:53:13;;;;;;;2.50;1.60;;;7.50;40.30;;;;;;5049915;28;20396;-71
2020/12/28 12:55:41;;;;;;;1.88;1.50;;;7.40;40.90;;;;;;5049835;28;20492;-70